Time;durP1;ratioP1;P1;durP2;ratioP2;P2;SDS_P1;SDS_P2;PMS_P1;PMS_P2;Temp;Humidity;BMP_temperature;BMP_pressure;BME280_temperature;BME280_humidity;BME280_pressure;Samples;Min_cycle;Max_cycle;Signal;HPM_P1;HPM_P2
2021/11/21 00:01:21;;;;;;;21.58;17.02;;;;;;;9.59;70.59;100399.63;4969590;28;20030;-80
2021/11/21 00:03:47;;;;;;;21.92;18.10;;;;;;;9.53;71.01;100416.31;4952700;28;20045;-80
2021/11/21 00:06:14;;;;;;;22.48;17.58;;;;;;;9.57;71.36;100402.25;4987855;28;20038;-81
2021/11/21 00:08:40;;;;;;;22.42;18.02;;;;;;;9.55;71.27;100404.03;4985784;28;20042;-83
2021/11/21 00:11:06;;;;;;;25.27;17.83;;;;;;;9.47;71.86;100403.19;4988150;28;20468;-81
2021/11/21 00:13:31;;;;;;;23.88;18.75;;;;;;;9.50;71.75;100402.28;4984969;28;20148;-80
2021/11/21 00:15:57;;;;;;;23.63;17.05;;;;;;;9.52;71.97;100396.13;4988642;28;20030;-80
2021/11/21 00:18:22;;;;;;;21.55;16.98;;;;;;;9.54;71.83;100398.78;4985001;28;20090;-81
2021/11/21 00:20:48;;;;;;;21.10;16.50;;;;;;;9.56;71.53;100399.63;4954957;28;20037;-80
2021/11/21 00:23:13;;;;;;;19.85;16.20;;;;;;;9.54;72.06;100394.38;4967886;28;20038;-81
2021/11/21 00:25:39;;;;;;;23.88;17.35;;;;;;;9.46;72.36;100395.28;4954040;28;20414;-81
2021/11/21 00:28:04;;;;;;;22.23;16.85;;;;;;;9.50;71.95;100387.34;4970993;28;20031;-83
2021/11/21 00:30:32;;;;;;;22.52;16.92;;;;;;;9.58;71.86;100382.06;4985840;28;20070;-80
2021/11/21 00:32:59;;;;;;;21.35;17.17;;;;;;;9.63;71.17;100383.78;4951197;28;20031;-81
2021/11/21 00:35:25;;;;;;;19.92;15.98;;;;;;;9.61;71.70;100382.91;4985569;28;20046;-80
2021/11/21 00:37:51;;;;;;;22.92;16.83;;;;;;;9.58;71.45;100380.28;4986497;28;20038;-81
2021/11/21 00:40:16;;;;;;;21.60;15.68;;;;;;;9.58;71.52;100382.06;4984518;28;20079;-80
2021/11/21 00:42:42;;;;;;;22.52;16.42;;;;;;;9.53;71.73;100376.81;4951331;28;20042;-80
2021/11/21 00:45:09;;;;;;;22.75;17.15;;;;;;;9.53;71.68;100360.13;4985012;28;20034;-81
2021/11/21 00:47:36;;;;;;;22.73;16.30;;;;;;;9.47;71.99;100355.75;4967192;28;20038;-83
2021/11/21 00:50:03;;;;;;;25.05;17.40;;;;;;;9.43;71.97;100360.19;4987722;28;20077;-83
2021/11/21 00:52:30;;;;;;;20.45;16.95;;;;;;;9.47;72.12;100363.66;4951103;28;20090;-80
2021/11/21 00:55:07;;;;;;;21.73;16.42;;;;;;;9.45;72.03;100362.78;4987597;28;20038;-81
2021/11/21 00:57:32;;;;;;;23.13;17.35;;;;;;;9.39;71.62;100354.94;4982499;28;20074;-80
2021/11/21 00:59:57;;;;;;;22.75;16.35;;;;;;;9.41;72.09;100353.16;4986105;28;20042;-81
2021/11/21 01:02:23;;;;;;;22.63;17.10;;;;;;;9.35;71.79;100356.72;4984575;28;20118;-81
2021/11/21 01:04:49;;;;;;;21.75;17.55;;;;;;;9.35;72.09;100351.44;4987050;28;20042;-80
2021/11/21 01:07:17;;;;;;;23.25;17.35;;;;;;;9.46;71.46;100351.41;4983915;28;20031;-81
2021/11/21 01:09:43;;;;;;;21.67;17.27;;;;;;;9.43;71.37;100351.38;4980053;28;20528;-80
2021/11/21 01:12:10;;;;;;;21.67;17.08;;;;;;;9.40;71.32;100359.31;4979810;28;20034;-81
2021/11/21 01:14:38;;;;;;;23.30;17.70;;;;;;;9.36;71.47;100361.09;4987076;28;20019;-80
2021/11/21 01:17:05;;;;;;;22.90;17.15;;;;;;;9.34;71.46;100361.97;4983816;28;20039;-83
2021/11/21 01:19:30;;;;;;;25.60;18.17;;;;;;;9.35;71.81;100353.16;4969176;28;20038;-81
2021/11/21 01:21:55;;;;;;;23.48;17.45;;;;;;;9.29;71.57;100358.47;4966985;28;20034;-82
2021/11/21 01:24:21;;;;;;;23.17;18.42;;;;;;;9.26;71.72;100350.59;4952260;28;20478;-81
2021/11/21 01:26:46;;;;;;;27.33;19.08;;;;;;;9.21;71.96;100350.59;4985076;28;20030;-80
2021/11/21 01:29:12;;;;;;;22.67;17.88;;;;;;;9.19;71.89;100347.97;4985109;28;20517;-82
2021/11/21 01:31:38;;;;;;;23.50;18.17;;;;;;;9.23;71.76;100347.97;4968278;28;20034;-80
2021/11/21 01:34:03;;;;;;;23.10;17.52;;;;;;;9.25;71.82;100335.66;4984478;28;20035;-80
2021/11/21 01:36:29;;;;;;;23.00;17.60;;;;;;;9.31;71.21;100325.13;4986941;28;20447;-81
2021/11/21 01:38:54;;;;;;;22.75;16.73;;;;;;;9.31;71.55;100330.38;4986517;28;20030;-81
2021/11/21 01:41:20;;;;;;;22.33;17.25;;;;;;;9.24;71.21;100324.25;4950484;28;20039;-80
2021/11/21 01:43:45;;;;;;;23.55;17.52;;;;;;;9.18;71.88;100322.53;4986342;28;20033;-80
2021/11/21 01:46:10;;;;;;;23.15;17.45;;;;;;;9.17;71.85;100326.03;4966168;28;20042;-81
2021/11/21 01:48:36;;;;;;;22.70;17.83;;;;;;;9.16;71.98;100320.78;4968843;28;20046;-80
2021/11/21 01:51:08;;;;;;;23.73;16.50;;;;;;;9.20;71.13;100318.13;4966692;28;20038;-80
2021/11/21 01:53:34;;;;;;;19.02;15.70;;;;;;;9.16;71.59;100321.66;4986109;28;20485;-80
2021/11/21 01:56:00;;;;;;;22.08;16.75;;;;;;;9.10;71.84;100321.69;4983291;28;20042;-80
2021/11/21 01:58:26;;;;;;;21.30;16.17;;;;;;;9.13;71.97;100311.13;4985575;28;20044;-80
2021/11/21 02:00:54;;;;;;;20.90;15.63;;;;;;;9.06;71.90;100306.75;4984048;28;20058;-84
2021/11/21 02:03:20;;;;;;;19.63;15.82;;;;;;;9.05;71.94;100306.78;4986305;28;20038;-80
2021/11/21 02:05:46;;;;;;;19.98;15.07;;;;;;;9.03;72.11;100304.16;4985150;28;20519;-80
2021/11/21 02:08:12;;;;;;;21.63;17.23;;;;;;;9.08;72.02;100291.84;4984343;28;20042;-80
2021/11/21 02:10:38;;;;;;;21.75;15.13;;;;;;;9.06;71.90;100293.59;4951448;28;20049;-81
2021/11/21 02:13:05;;;;;;;22.30;16.02;;;;;;;9.05;72.20;100291.00;4984605;28;20069;-79
2021/11/21 02:15:31;;;;;;;22.23;16.08;;;;;;;9.12;71.88;100292.72;4966741;28;20034;-82
2021/11/21 02:17:56;;;;;;;21.55;15.75;;;;;;;9.10;71.83;100284.81;4968181;28;20088;-80
2021/11/21 02:20:43;;;;;;;21.83;16.10;;;;;;;9.01;72.21;100282.22;4983485;28;20083;-81
2021/11/21 02:23:10;;;;;;;20.95;14.80;;;;;;;8.97;72.47;100269.97;4984990;28;20093;-80
2021/11/21 02:25:37;;;;;;;23.50;14.55;;;;;;;8.95;72.19;100266.44;4981070;28;20054;-81
2021/11/21 02:28:04;;;;;;;21.00;16.58;;;;;;;8.93;72.18;100270.84;4965579;28;20035;-80
2021/11/21 02:30:29;;;;;;;22.83;16.27;;;;;;;8.86;72.52;100269.13;4968968;28;20034;-83
2021/11/21 02:32:55;;;;;;;22.60;16.88;;;;;;;8.82;72.61;100257.72;4951428;28;20050;-79
2021/11/21 02:35:22;;;;;;;24.27;17.42;;;;;;;8.81;72.98;100265.63;4983982;28;20038;-80
2021/11/21 02:37:49;;;;;;;22.55;16.20;;;;;;;8.87;72.76;100252.44;4967301;28;20031;-81
2021/11/21 02:40:16;;;;;;;21.85;16.77;;;;;;;8.87;72.59;100249.81;4983885;28;20045;-81
2021/11/21 02:42:42;;;;;;;22.00;16.30;;;;;;;8.86;72.56;100248.06;4966529;28;20054;-80
2021/11/21 02:45:10;;;;;;;24.00;16.92;;;;;;;8.88;72.60;100248.91;4967302;28;20042;-81
2021/11/21 02:47:36;;;;;;;22.95;17.13;;;;;;;8.88;72.99;100235.75;4950593;28;20042;-82
2021/11/21 02:50:05;;;;;;;22.38;17.42;;;;;;;8.86;73.03;100237.56;4984594;28;20401;-83
2021/11/21 02:52:31;;;;;;;25.27;18.60;;;;;;;8.88;73.16;100238.41;4983312;28;20035;-81
2021/11/21 02:54:58;;;;;;;22.13;17.60;;;;;;;8.83;73.19;100232.28;4984411;28;20109;-80
2021/11/21 02:57:26;;;;;;;26.65;17.88;;;;;;;8.80;73.17;100230.53;4982096;28;20121;-80
2021/11/21 02:59:52;;;;;;;25.23;18.85;;;;;;;8.75;73.43;100230.56;4949685;28;20042;-80
2021/11/21 03:02:19;;;;;;;23.38;17.58;;;;;;;8.75;73.41;100224.41;4984672;28;20034;-84
2021/11/21 03:04:47;;;;;;;22.20;16.30;;;;;;;8.73;73.15;100227.06;4964784;28;20047;-80
2021/11/21 03:07:13;;;;;;;24.73;18.88;;;;;;;8.73;73.59;100219.16;4985065;28;20088;-80
2021/11/21 03:09:39;;;;;;;23.80;17.70;;;;;;;8.77;72.98;100217.38;4982755;28;20031;-81
2021/11/21 03:12:06;;;;;;;27.45;19.98;;;;;;;8.73;73.40;100215.66;4968108;28;20416;-82
2021/11/21 03:14:31;;;;;;;24.48;18.67;;;;;;;8.65;73.05;100207.78;4981869;28;20022;-80
2021/11/21 03:16:57;;;;;;;26.42;19.33;;;;;;;8.70;73.50;100210.41;4985517;28;20129;-80
2021/11/21 03:19:23;;;;;;;27.92;19.50;;;;;;;8.70;73.71;100199.91;4982329;28;20042;-83
2021/11/21 03:21:48;;;;;;;26.85;19.20;;;;;;;8.68;73.57;100202.53;4984955;28;20049;-83
2021/11/21 03:24:14;;;;;;;27.27;18.88;;;;;;;8.67;73.71;100200.78;4983433;28;20436;-82
2021/11/21 03:26:39;;;;;;;25.80;18.55;;;;;;;8.63;73.31;100193.78;4987077;28;20060;-81
2021/11/21 03:29:05;;;;;;;22.85;16.85;;;;;;;8.62;73.81;100202.56;4984414;28;20031;-84
2021/11/21 03:31:33;;;;;;;24.70;17.80;;;;;;;8.65;73.29;100199.91;4986556;28;20075;-81
2021/11/21 03:33:59;;;;;;;24.65;17.98;;;;;;;8.64;73.98;100198.13;4987157;28;20030;-83
2021/11/21 03:36:24;;;;;;;26.88;18.90;;;;;;;8.63;73.57;100192.91;4969337;28;20034;-79
2021/11/21 03:38:49;;;;;;;25.17;18.38;;;;;;;8.65;73.55;100186.75;4987946;28;20041;-80
2021/11/21 03:41:15;;;;;;;25.70;19.13;;;;;;;8.62;73.69;100181.50;4985980;28;20043;-83
2021/11/21 03:43:40;;;;;;;26.08;18.65;;;;;;;8.60;74.16;100183.25;4988370;28;20097;-80
2021/11/21 03:46:06;;;;;;;26.88;20.65;;;;;;;8.59;73.89;100186.75;4952870;29;20035;-80
2021/11/21 03:48:31;;;;;;;27.83;19.67;;;;;;;8.58;73.64;100185.00;4989018;28;20496;-82
2021/11/21 03:50:57;;;;;;;24.75;18.45;;;;;;;8.55;74.68;100178.00;4987980;28;20042;-80
2021/11/21 03:53:22;;;;;;;26.55;20.25;;;;;;;8.48;74.40;100178.03;4985336;28;20034;-79
2021/11/21 03:55:48;;;;;;;28.10;20.75;;;;;;;8.57;74.12;100178.00;4987507;28;20494;-81
2021/11/21 03:58:14;;;;;;;24.63;19.25;;;;;;;8.63;74.17;100179.75;4969171;28;20037;-83
2021/11/21 04:00:45;;;;;;;25.45;19.20;;;;;;;8.60;73.64;100172.75;4986949;28;20556;-82
2021/11/21 04:03:10;;;;;;;26.60;20.38;;;;;;;8.62;73.84;100170.97;4986182;28;20042;-80
2021/11/21 04:05:36;;;;;;;27.58;20.33;;;;;;;8.61;73.80;100173.59;4986862;28;20038;-80
2021/11/21 04:08:02;;;;;;;27.63;19.95;;;;;;;8.61;74.11;100165.72;4969444;28;20035;-81
2021/11/21 04:10:27;;;;;;;24.00;18.15;;;;;;;8.65;73.88;100159.56;4986630;28;20114;-80
2021/11/21 04:12:52;;;;;;;28.08;19.65;;;;;;;8.59;73.60;100164.84;4987166;28;20070;-80
2021/11/21 04:15:18;;;;;;;26.45;20.38;;;;;;;8.62;73.88;100159.56;4985141;28;20038;-81
2021/11/21 04:17:43;;;;;;;23.80;17.95;;;;;;;8.69;74.09;100156.91;4988252;28;20034;-79
2021/11/21 04:20:10;;;;;;;26.65;21.00;;;;;;;8.68;74.19;100160.44;4951929;28;20493;-80
2021/11/21 04:22:36;;;;;;;26.10;19.92;;;;;;;8.62;74.23;100160.47;4980522;28;20043;-80
2021/11/21 04:25:02;;;;;;;26.55;19.65;;;;;;;8.61;74.32;100153.44;4987931;28;20048;-80
2021/11/21 04:27:28;;;;;;;26.58;19.95;;;;;;;8.58;74.27;100155.22;4984701;28;20070;-80
2021/11/21 04:29:57;;;;;;;26.00;19.30;;;;;;;8.59;74.45;100156.94;4987418;28;20065;-80
2021/11/21 04:32:23;;;;;;;31.73;20.98;;;;;;;8.58;74.31;100153.44;4967486;28;20130;-82
2021/11/21 04:34:49;;;;;;;26.40;20.05;;;;;;;8.51;74.61;100146.47;4968520;28;20068;-80
2021/11/21 04:37:16;;;;;;;25.13;19.10;;;;;;;8.55;74.49;100138.56;4985462;28;20044;-80
2021/11/21 04:39:41;;;;;;;27.98;20.58;;;;;;;8.56;74.31;100132.41;4986623;28;20397;-80
2021/11/21 04:42:06;;;;;;;29.25;20.65;;;;;;;8.53;74.14;100129.78;4968525;28;20042;-81
2021/11/21 04:44:32;;;;;;;26.15;19.20;;;;;;;8.53;74.17;100129.78;4985382;28;20125;-80
2021/11/21 04:46:57;;;;;;;26.45;18.73;;;;;;;8.55;74.33;100122.78;4986678;28;20038;-81
2021/11/21 04:49:23;;;;;;;26.20;19.70;;;;;;;8.56;74.02;100121.00;4981817;28;20053;-81
2021/11/21 04:51:48;;;;;;;28.95;20.40;;;;;;;8.58;73.88;100121.03;4970129;28;20038;-82
2021/11/21 04:54:16;;;;;;;27.35;20.95;;;;;;;8.54;74.24;100125.41;4968989;28;20033;-83
2021/11/21 04:56:44;;;;;;;26.75;19.50;;;;;;;8.59;74.24;100128.00;4987362;28;20405;-80
2021/11/21 04:59:10;;;;;;;25.65;19.65;;;;;;;8.60;74.39;100120.13;4984101;28;20489;-80
2021/11/21 05:01:35;;;;;;;24.35;17.60;;;;;;;8.63;73.95;100125.38;4970397;28;20073;-81
2021/11/21 05:04:00;;;;;;;24.08;19.25;;;;;;;8.64;74.41;100121.84;4966268;28;20035;-80
2021/11/21 05:06:26;;;;;;;28.95;20.23;;;;;;;8.70;74.12;100118.34;4986598;28;20110;-80
2021/11/21 05:08:51;;;;;;;24.90;19.25;;;;;;;8.61;73.88;100111.34;4967130;28;20066;-80
2021/11/21 05:11:16;;;;;;;27.10;20.45;;;;;;;8.57;74.18;100112.25;4984103;28;20117;-81
2021/11/21 05:13:42;;;;;;;27.77;19.20;;;;;;;8.56;74.42;100111.34;4985637;28;20185;-80
2021/11/21 05:16:07;;;;;;;24.08;19.27;;;;;;;8.66;74.10;100108.69;4980976;28;20039;-83
2021/11/21 05:18:32;;;;;;;26.45;18.77;;;;;;;8.63;73.49;100109.59;4985545;28;20045;-80
2021/11/21 05:20:58;;;;;;;25.92;19.88;;;;;;;8.65;74.27;100105.19;4987663;28;20061;-81
2021/11/21 05:23:23;;;;;;;25.88;19.05;;;;;;;8.63;73.84;100108.72;4966425;28;20121;-83
2021/11/21 05:25:49;;;;;;;25.17;19.55;;;;;;;8.68;74.25;100101.69;4986752;28;20030;-81
2021/11/21 05:28:14;;;;;;;22.08;17.98;;;;;;;8.62;73.69;100105.22;4987646;28;20524;-80
2021/11/21 05:30:40;;;;;;;26.10;18.30;;;;;;;8.60;74.13;100093.81;4961926;28;20101;-82
2021/11/21 05:33:07;;;;;;;22.67;17.13;;;;;;;8.60;74.10;100087.69;4986584;28;20468;-80
2021/11/21 05:35:32;;;;;;;26.98;19.70;;;;;;;8.56;73.70;100084.19;4965859;28;20043;-81
2021/11/21 05:37:57;;;;;;;26.83;19.00;;;;;;;8.54;74.18;100083.31;4985946;28;20382;-83
2021/11/21 05:40:23;;;;;;;24.35;19.20;;;;;;;8.49;74.18;100075.47;4984623;28;20520;-80
2021/11/21 05:42:48;;;;;;;24.90;18.77;;;;;;;8.53;73.93;100071.06;4984949;28;20042;-79
2021/11/21 05:45:14;;;;;;;25.80;18.40;;;;;;;8.54;73.92;100067.53;4951567;28;20045;-83
2021/11/21 05:47:41;;;;;;;23.42;18.40;;;;;;;8.61;73.52;100074.50;4984222;28;20077;-82
2021/11/21 05:50:12;;;;;;;26.42;18.90;;;;;;;8.62;73.77;100065.75;4985255;28;20382;-82
2021/11/21 05:52:39;;;;;;;24.27;16.42;;;;;;;8.60;73.83;100067.53;4935399;28;20067;-80
2021/11/21 05:55:05;;;;;;;25.40;18.20;;;;;;;8.59;73.28;100064.88;4984775;28;20038;-80
2021/11/21 05:57:30;;;;;;;23.42;17.45;;;;;;;8.60;73.28;100079.81;4983985;28;20042;-80
2021/11/21 05:59:56;;;;;;;25.70;18.02;;;;;;;8.63;73.41;100056.97;4968163;28;20404;-81
2021/11/21 06:02:21;;;;;;;25.75;18.65;;;;;;;8.66;73.51;100071.88;4950613;28;20034;-80
2021/11/21 06:04:47;;;;;;;23.83;18.25;;;;;;;8.62;73.33;100065.75;4985645;28;20493;-81
2021/11/21 06:07:12;;;;;;;23.00;17.75;;;;;;;8.60;73.37;100070.16;4982622;28;20042;-84
2021/11/21 06:09:37;;;;;;;24.08;18.20;;;;;;;8.61;73.40;100057.88;4986893;28;20036;-81
2021/11/21 06:12:03;;;;;;;29.58;19.02;;;;;;;8.54;73.10;100057.00;4982207;28;20042;-80
2021/11/21 06:14:30;;;;;;;25.63;17.80;;;;;;;8.54;73.80;100055.28;4983162;28;20039;-81
2021/11/21 06:16:56;;;;;;;24.30;17.20;;;;;;;8.59;73.26;100057.84;4985309;28;20046;-80
2021/11/21 06:19:21;;;;;;;23.83;18.25;;;;;;;8.59;73.26;100060.50;4983922;28;20057;-81
2021/11/21 06:21:46;;;;;;;26.38;19.17;;;;;;;8.56;72.90;100064.00;4951496;28;20166;-83
2021/11/21 06:24:12;;;;;;;22.65;17.33;;;;;;;8.59;73.18;100064.88;4966764;28;20065;-80
2021/11/21 06:26:37;;;;;;;22.52;16.80;;;;;;;8.66;72.76;100067.47;4986416;28;20424;-81
2021/11/21 06:29:02;;;;;;;24.42;18.55;;;;;;;8.60;72.96;100061.38;4983407;28;20046;-80
2021/11/21 06:31:29;;;;;;;26.35;19.50;;;;;;;8.61;72.68;100063.13;4967919;28;20038;-81
2021/11/21 06:33:56;;;;;;;23.92;17.85;;;;;;;8.56;73.12;100073.66;4982646;28;20034;-82
2021/11/21 06:36:22;;;;;;;22.88;17.00;;;;;;;8.59;72.83;100059.63;4968306;28;20173;-80
2021/11/21 06:38:48;;;;;;;25.85;18.50;;;;;;;8.60;72.92;100067.53;4965485;28;20042;-81
2021/11/21 06:41:13;;;;;;;25.05;18.52;;;;;;;8.52;73.11;100071.94;4986049;28;20043;-81
2021/11/21 06:43:39;;;;;;;26.40;18.27;;;;;;;8.51;73.25;100062.28;4964681;28;20101;-80
2021/11/21 06:46:04;;;;;;;24.75;18.95;;;;;;;8.55;72.98;100066.66;4985546;28;20030;-81
2021/11/21 06:48:29;;;;;;;25.67;18.55;;;;;;;8.53;73.20;100063.16;4968454;28;20038;-80
2021/11/21 06:50:55;;;;;;;24.13;17.50;;;;;;;8.50;73.14;100069.31;4981782;28;20042;-80
2021/11/21 06:53:21;;;;;;;26.15;19.40;;;;;;;8.46;73.19;100066.69;4985213;28;20038;-81
2021/11/21 06:55:47;;;;;;;25.55;18.55;;;;;;;8.44;73.09;100068.50;4984265;28;20046;-80
2021/11/21 06:58:12;;;;;;;26.65;18.92;;;;;;;8.44;73.38;100063.22;4984272;28;20038;-81
2021/11/21 07:00:37;;;;;;;25.05;18.35;;;;;;;8.45;73.23;100064.97;4988544;28;20030;-82
2021/11/21 07:03:03;;;;;;;24.77;18.58;;;;;;;8.46;73.32;100067.59;4986575;28;20049;-80
2021/11/21 07:05:28;;;;;;;24.90;18.02;;;;;;;8.48;73.36;100062.31;4990114;28;20058;-80
2021/11/21 07:07:54;;;;;;;25.88;18.23;;;;;;;8.50;73.49;100063.19;4989361;28;20041;-82
2021/11/21 07:10:19;;;;;;;26.05;17.45;;;;;;;8.48;72.80;100068.44;4986015;28;20047;-81
2021/11/21 07:12:45;;;;;;;25.23;18.05;;;;;;;8.49;72.90;100062.31;4988998;28;20042;-81
2021/11/21 07:15:12;;;;;;;26.35;18.88;;;;;;;8.52;73.24;100058.81;4969133;28;20101;-81
2021/11/21 07:17:38;;;;;;;27.08;18.17;;;;;;;8.44;73.10;100056.22;4985881;28;20042;-82
2021/11/21 07:20:05;;;;;;;25.65;18.35;;;;;;;8.48;73.06;100062.31;4955374;28;20092;-80
2021/11/21 07:22:32;;;;;;;24.35;17.83;;;;;;;8.48;73.24;100051.78;4986831;28;20038;-82
2021/11/21 07:24:57;;;;;;;29.33;19.42;;;;;;;8.46;72.85;100057.09;4987900;28;20034;-80
2021/11/21 07:27:23;;;;;;;26.50;19.50;;;;;;;8.45;73.09;100060.56;4987110;28;20117;-80
2021/11/21 07:29:49;;;;;;;25.15;19.45;;;;;;;8.48;72.96;100059.69;4984799;28;20038;-82
2021/11/21 07:32:15;;;;;;;28.40;19.83;;;;;;;8.55;72.82;100059.66;4974413;28;20038;-81
2021/11/21 07:34:40;;;;;;;26.60;18.92;;;;;;;8.56;72.41;100058.75;4991162;28;20102;-83
2021/11/21 07:37:05;;;;;;;24.42;18.05;;;;;;;8.66;72.72;100054.31;4991889;28;20034;-80
2021/11/21 07:39:31;;;;;;;26.30;17.48;;;;;;;8.70;72.24;100063.97;4949023;28;20035;-81
2021/11/21 07:41:56;;;;;;;24.90;18.45;;;;;;;8.61;72.26;100058.72;4984935;28;20027;-83
2021/11/21 07:44:24;;;;;;;27.67;18.85;;;;;;;8.55;71.96;100072.78;4988275;28;20057;-85
2021/11/21 07:46:49;;;;;;;31.48;19.92;;;;;;;8.55;72.07;100069.28;4971824;28;20038;-82
2021/11/21 07:49:15;;;;;;;26.23;18.77;;;;;;;8.66;72.27;100062.22;4985605;28;20368;-81
2021/11/21 07:51:40;;;;;;;30.13;19.33;;;;;;;8.69;71.81;100067.44;4988733;28;20037;-83
2021/11/21 07:54:06;;;;;;;25.83;19.48;;;;;;;8.69;71.69;100071.84;4985708;28;20058;-80
2021/11/21 07:56:31;;;;;;;27.48;19.88;;;;;;;8.65;71.62;100060.47;4987585;28;20076;-80
2021/11/21 07:58:56;;;;;;;25.02;17.38;;;;;;;8.67;71.56;100068.34;4982846;28;20042;-83
2021/11/21 08:01:22;;;;;;;27.45;19.70;;;;;;;8.61;71.62;100066.63;4986286;28;20128;-80
2021/11/21 08:03:47;;;;;;;25.67;19.02;;;;;;;8.64;72.20;100061.34;4969816;28;20038;-81
2021/11/21 08:06:12;;;;;;;24.85;17.25;;;;;;;8.64;71.88;100063.97;4985033;28;20049;-80
2021/11/21 08:08:38;;;;;;;28.52;20.23;;;;;;;8.75;72.30;100062.19;4989584;28;20042;-80
2021/11/21 08:11:04;;;;;;;28.67;19.27;;;;;;;8.68;71.45;100067.47;4984177;28;20046;-81
2021/11/21 08:13:29;;;;;;;27.55;20.02;;;;;;;8.59;72.23;100064.88;4984344;28;20034;-82
2021/11/21 08:15:55;;;;;;;27.75;19.52;;;;;;;8.63;72.11;100061.38;4947869;28;20038;-80
2021/11/21 08:18:21;;;;;;;29.77;19.77;;;;;;;8.70;71.67;100066.59;4988035;28;20042;-80
2021/11/21 08:20:47;;;;;;;28.38;19.50;;;;;;;8.72;71.65;100077.09;4985533;28;20102;-80
2021/11/21 08:23:12;;;;;;;27.63;19.98;;;;;;;8.72;72.33;100067.47;4951475;28;20526;-80
2021/11/21 08:25:38;;;;;;;28.92;19.75;;;;;;;8.62;72.00;100062.22;4986608;28;20600;-81
2021/11/21 08:28:04;;;;;;;28.25;19.27;;;;;;;8.69;71.93;100067.44;4971061;28;20098;-80
2021/11/21 08:30:32;;;;;;;27.08;20.13;;;;;;;8.74;71.67;100076.19;4986215;28;20030;-83
2021/11/21 08:32:58;;;;;;;29.58;18.90;;;;;;;8.65;72.94;100075.41;4984064;28;20490;-82
2021/11/21 08:35:23;;;;;;;31.77;20.80;;;;;;;8.53;72.73;100071.06;4969241;28;20159;-79
2021/11/21 08:37:49;;;;;;;26.48;19.27;;;;;;;8.62;72.84;100071.03;4987917;28;20038;-80
2021/11/21 08:40:14;;;;;;;28.13;19.08;;;;;;;8.59;72.58;100065.75;4985630;28;20034;-79
2021/11/21 08:42:40;;;;;;;31.65;20.63;;;;;;;8.54;72.40;100073.69;4970501;28;20038;-79
2021/11/21 08:45:07;;;;;;;29.38;20.60;;;;;;;8.65;72.37;100068.38;4951848;28;20046;-80
2021/11/21 08:47:32;;;;;;;28.83;19.27;;;;;;;8.64;72.83;100071.00;4989006;28;20030;-80
2021/11/21 08:49:58;;;;;;;29.63;19.65;;;;;;;8.53;72.66;100066.66;4963958;28;20509;-80
2021/11/21 08:52:23;;;;;;;25.83;18.98;;;;;;;8.61;72.85;100065.75;4987987;28;20068;-80
2021/11/21 08:54:48;;;;;;;31.45;19.55;;;;;;;8.65;72.39;100065.75;4985503;28;20031;-80
2021/11/21 08:57:14;;;;;;;30.20;20.02;;;;;;;8.64;72.41;100063.97;4987311;28;20038;-79
2021/11/21 08:59:39;;;;;;;27.63;19.73;;;;;;;8.64;72.25;100065.72;4986330;28;20121;-80
2021/11/21 09:02:05;;;;;;;29.88;19.23;;;;;;;8.58;72.22;100066.66;4986978;28;20073;-80
2021/11/21 09:04:30;;;;;;;27.42;19.08;;;;;;;8.65;71.66;100055.22;4986184;28;20039;-80
2021/11/21 09:06:56;;;;;;;26.20;17.98;;;;;;;8.71;71.43;100060.44;4986294;28;20046;-79
2021/11/21 09:09:21;;;;;;;25.75;18.73;;;;;;;8.75;71.88;100062.19;4987555;28;20480;-79
2021/11/21 09:11:47;;;;;;;27.00;17.83;;;;;;;8.74;71.31;100062.16;4951964;28;20035;-80
2021/11/21 09:14:14;;;;;;;24.58;18.45;;;;;;;8.76;71.38;100057.78;4987519;28;20061;-79
2021/11/21 09:16:40;;;;;;;27.85;19.38;;;;;;;8.90;70.53;100070.84;4984389;28;20053;-80
2021/11/21 09:19:05;;;;;;;24.67;17.67;;;;;;;8.91;70.84;100072.59;4988069;28;20034;-80
2021/11/21 09:21:30;;;;;;;25.42;18.50;;;;;;;8.98;70.78;100058.50;4984206;28;20046;-80
2021/11/21 09:23:56;;;;;;;25.45;19.00;;;;;;;9.10;70.49;100053.16;4986841;28;20081;-80
2021/11/21 09:26:21;;;;;;;26.30;17.73;;;;;;;9.13;70.54;100057.50;4985561;28;20080;-80
2021/11/21 09:28:46;;;;;;;26.13;17.52;;;;;;;9.07;70.60;100053.19;4983600;28;20401;-79
2021/11/21 09:31:12;;;;;;;25.27;17.17;;;;;;;9.23;70.68;100059.19;4985463;28;20173;-80
2021/11/21 09:33:37;;;;;;;22.75;16.00;;;;;;;9.24;69.21;100052.16;4985570;28;20031;-79
2021/11/21 09:36:05;;;;;;;25.10;17.30;;;;;;;9.18;70.20;100056.59;4986624;28;20077;-79
2021/11/21 09:38:30;;;;;;;24.73;17.30;;;;;;;9.18;70.04;100061.84;4983921;28;20045;-80
2021/11/21 09:40:55;;;;;;;23.98;17.10;;;;;;;9.09;69.55;100051.41;4966836;28;20046;-80
2021/11/21 09:43:21;;;;;;;24.30;16.90;;;;;;;9.07;70.14;100047.03;4983820;28;20031;-79
2021/11/21 09:45:48;;;;;;;25.27;18.05;;;;;;;8.94;70.63;100051.53;4987265;28;20038;-80
2021/11/21 09:48:13;;;;;;;23.38;16.50;;;;;;;9.14;69.90;100054.88;4966973;28;20101;-79
2021/11/21 09:50:41;;;;;;;25.60;17.83;;;;;;;9.11;70.42;100051.38;4979624;28;20038;-80
2021/11/21 09:53:08;;;;;;;24.60;17.80;;;;;;;9.26;69.75;100047.75;4979449;28;20031;-80
2021/11/21 09:55:35;;;;;;;24.77;16.52;;;;;;;9.35;70.21;100037.13;4987284;28;20080;-80
2021/11/21 09:58:01;;;;;;;24.88;17.52;;;;;;;9.42;69.53;100038.81;4966644;28;20521;-80
2021/11/21 10:00:28;;;;;;;24.23;17.40;;;;;;;9.48;69.50;100033.50;4983733;28;20026;-79
2021/11/21 10:03:03;;;;;;;25.73;17.38;;;;;;;9.40;69.52;100028.28;4984402;28;20045;-79
2021/11/21 10:05:31;;;;;;;24.98;17.02;;;;;;;9.50;69.26;100031.72;4980413;28;20098;-80
2021/11/21 10:08:17;;;;;;;24.52;16.52;;;;;;;9.64;68.85;100029.84;4947095;29;20094;-80
2021/11/21 10:10:55;;;;;;;25.02;16.92;;;;;;;9.63;68.63;100033.34;4984832;28;20042;-80
2021/11/21 10:13:31;;;;;;;26.15;17.95;;;;;;;9.63;68.29;100038.63;4946966;28;20094;-80
2021/11/21 10:16:16;;;;;;;24.42;17.02;;;;;;;9.55;68.72;100035.19;4964218;28;20039;-80
2021/11/21 10:18:52;;;;;;;23.40;16.83;;;;;;;9.57;68.48;100032.56;4967231;28;20066;-80
2021/11/21 10:21:23;;;;;;;24.75;16.95;;;;;;;9.44;68.62;100023.88;4975605;28;20046;-80
2021/11/21 10:23:48;;;;;;;25.33;17.48;;;;;;;9.47;68.96;100030.88;4986390;28;20045;-80
2021/11/21 10:26:22;;;;;;;23.25;15.82;;;;;;;9.54;68.34;100022.91;4983228;28;20039;-80
2021/11/21 10:28:48;;;;;;;22.83;16.15;;;;;;;9.61;68.94;100024.56;4968984;28;20038;-80
2021/11/21 10:31:22;;;;;;;25.25;17.02;;;;;;;9.54;68.40;100020.28;4983839;28;20149;-80
2021/11/21 10:33:58;;;;;;;25.95;17.83;;;;;;;9.59;68.13;100023.75;4967009;28;20026;-80
2021/11/21 10:36:28;;;;;;;22.75;16.35;;;;;;;9.80;68.48;100016.50;4985840;28;20107;-80
2021/11/21 10:38:55;;;;;;;22.88;16.42;;;;;;;9.84;66.78;100016.44;4984048;28;20074;-80
2021/11/21 10:41:34;;;;;;;23.38;16.58;;;;;;;9.73;67.18;100018.31;4985568;28;20042;-80
2021/11/21 10:44:07;;;;;;;23.70;16.20;;;;;;;9.76;66.73;100007.75;4962159;28;20049;-80
2021/11/21 10:46:53;;;;;;;22.42;16.00;;;;;;;9.84;67.25;100010.28;4986248;28;20073;-80
2021/11/21 10:49:27;;;;;;;24.98;16.73;;;;;;;9.81;66.97;100012.97;4953534;28;20045;-80
2021/11/21 10:52:08;;;;;;;23.27;16.02;;;;;;;9.78;67.23;100010.38;4962792;28;20259;-80
2021/11/21 10:54:45;;;;;;;22.67;15.85;;;;;;;9.80;67.22;100003.31;4984587;28;20421;-80
2021/11/21 10:57:14;;;;;;;23.55;15.35;;;;;;;9.75;67.40;100010.41;4986163;28;20512;-80
2021/11/21 11:00:00;;;;;;;24.77;16.30;;;;;;;9.86;66.95;100011.16;4965939;28;20043;-80
2021/11/21 11:02:31;;;;;;;21.65;15.07;;;;;;;9.84;66.37;100005.03;4982087;28;20048;-80
2021/11/21 11:05:02;;;;;;;23.98;17.15;;;;;;;9.63;67.11;100004.38;4984211;28;20042;-80
2021/11/21 11:07:31;;;;;;;22.33;16.47;;;;;;;9.74;67.44;100013.91;4952212;28;20482;-80
2021/11/21 11:09:57;;;;;;;24.00;16.20;;;;;;;9.80;67.29;100008.59;4984084;28;20478;-80
2021/11/21 11:12:23;;;;;;;21.73;15.52;;;;;;;9.82;66.27;100006.78;4967780;28;20046;-79
2021/11/21 11:14:49;;;;;;;24.55;16.25;;;;;;;9.76;66.99;100012.13;4984381;28;20027;-80